createdAt,value
2023-02-12T00:02:32.485Z,33.45
2023-02-12T00:07:31.629Z,30.63
2023-02-12T00:12:30.339Z,32.42
2023-02-12T00:17:29.243Z,34.40
2023-02-12T00:22:29.502Z,31.90
2023-02-12T00:27:28.275Z,33.17
2023-02-12T00:32:27.726Z,38.10
2023-02-12T00:37:26.489Z,33.65
2023-02-12T00:42:25.707Z,40.05
2023-02-12T00:47:24.542Z,36.53
2023-02-12T00:52:23.456Z,38.72
2023-02-12T00:57:22.210Z,41.47
2023-02-12T01:02:21.704Z,40.97
2023-02-12T01:07:20.857Z,41.47
2023-02-12T01:12:19.649Z,40.90
2023-02-12T01:17:18.755Z,40.33
2023-02-12T01:22:17.590Z,39.63
2023-02-12T01:27:16.454Z,37.67
2023-02-12T01:32:15.524Z,34.17
2023-02-12T01:37:14.487Z,36.15
2023-02-12T01:42:15.615Z,38.78
2023-02-12T01:47:18.256Z,36.65
2023-02-12T01:52:33.550Z,35.70
2023-02-12T01:57:37.335Z,39.10
2023-02-12T02:02:37.569Z,39.25
2023-02-12T02:07:36.240Z,36.38
2023-02-12T02:12:56.913Z,35.45
2023-02-12T02:18:09.295Z,33.58
2023-02-12T02:23:36.174Z,37.08
2023-02-12T02:28:55.972Z,38.92
2023-02-12T02:34:16.443Z,37.20
2023-02-12T02:39:28.365Z,38.97
2023-02-12T02:44:50.121Z,39.53
2023-02-12T02:50:01.399Z,38.25
2023-02-12T02:55:06.891Z,37.65
2023-02-12T03:00:09.996Z,41.03
2023-02-12T03:05:22.576Z,36.42
2023-02-12T03:10:30.300Z,36.10
2023-02-12T03:15:35.112Z,34.78
2023-02-12T03:20:41.878Z,35.83
2023-02-12T03:25:57.598Z,32.35
2023-02-12T03:30:59.472Z,29.92
2023-02-12T03:36:17.563Z,31.85
2023-02-12T03:41:21.964Z,31.83
2023-02-12T03:46:28.983Z,30.52
2023-02-12T03:51:55.146Z,31.23
2023-02-12T03:56:59.676Z,34.95
2023-02-12T04:01:59.788Z,34.53
2023-02-12T04:06:58.785Z,39.53
2023-02-12T04:12:36.201Z,37.95
2023-02-12T04:17:41.156Z,35.78
2023-02-12T04:22:54.436Z,36.22
2023-02-12T04:28:25.250Z,35.97
2023-02-12T04:33:27.420Z,36.67
2023-02-12T04:38:32.874Z,37.55
2023-02-12T04:43:37.153Z,42.90
2023-02-12T04:48:43.888Z,40.17
2023-02-12T04:53:42.645Z,38.42
2023-02-12T04:58:42.435Z,40.38
2023-02-12T05:03:41.211Z,35.92
2023-02-12T05:08:39.924Z,37.58
2023-02-12T05:13:39.150Z,36.63
2023-02-12T05:18:38.156Z,36.38
2023-02-12T05:23:38.665Z,33.70
2023-02-12T05:28:37.523Z,37.92
2023-02-12T05:33:36.582Z,35.20
2023-02-12T05:38:35.846Z,34.55
2023-02-12T05:43:35.230Z,34.33
2023-02-12T05:48:34.571Z,36.30
2023-02-12T05:53:33.853Z,45.47
2023-02-12T05:58:32.654Z,34.30
2023-02-12T06:03:31.374Z,34.60
2023-02-12T06:08:30.097Z,32.72
2023-02-12T06:13:29.688Z,33.85
2023-02-12T06:18:28.888Z,33.30
2023-02-12T06:23:27.665Z,33.65
2023-02-12T06:28:26.526Z,32.78
2023-02-12T06:33:25.384Z,29.40
2023-02-12T06:38:24.137Z,32.20
2023-02-12T06:43:23.070Z,31.23
2023-02-12T06:48:21.850Z,29.23
2023-02-12T06:53:20.616Z,30.67
2023-02-12T06:58:19.599Z,31.45
2023-02-12T07:03:18.279Z,33.28
2023-02-12T07:08:17.397Z,34.00
2023-02-12T07:13:16.420Z,31.27
2023-02-12T07:18:15.199Z,30.85
2023-02-12T07:23:14.494Z,29.05
2023-02-12T07:28:13.530Z,28.35
2023-02-12T07:33:12.341Z,26.70
2023-02-12T07:38:12.181Z,27.20
2023-02-12T07:43:11.136Z,27.25
2023-02-12T07:48:12.771Z,27.90
2023-02-12T07:53:11.560Z,28.38
2023-02-12T07:58:13.321Z,29.45
2023-02-12T08:03:12.052Z,26.42
2023-02-12T08:08:10.855Z,28.33
2023-02-12T08:13:09.624Z,31.13
2023-02-12T08:18:08.373Z,27.52
2023-02-12T08:23:07.314Z,27.65
2023-02-12T08:28:06.575Z,13.93
2023-02-12T08:33:05.435Z,19.88
2023-02-12T08:38:04.202Z,21.83
2023-02-12T08:43:02.951Z,23.70
2023-02-12T08:48:02.169Z,22.33
2023-02-12T08:53:00.964Z,25.20
2023-02-12T08:58:00.950Z,26.65
2023-02-12T09:02:59.710Z,23.08
2023-02-12T09:07:58.768Z,24.40
2023-02-12T09:12:57.569Z,23.08
2023-02-12T09:17:56.334Z,26.02
2023-02-12T09:22:55.144Z,22.77
2023-02-12T09:27:55.669Z,25.30
2023-02-12T09:32:55.866Z,22.85
2023-02-12T09:37:54.782Z,22.92
2023-02-12T09:43:11.845Z,24.48
2023-02-12T09:48:10.508Z,22.02
2023-02-12T09:53:14.878Z,20.58
2023-02-12T09:58:51.917Z,20.80
2023-02-12T10:03:52.461Z,16.23
2023-02-12T10:09:28.828Z,14.95
2023-02-12T10:14:57.465Z,18.90
2023-02-12T10:20:16.193Z,15.90
2023-02-12T10:25:54.467Z,13.70
2023-02-12T10:30:55.671Z,13.10
2023-02-12T10:36:26.780Z,15.73
2023-02-12T10:41:29.110Z,16.33
2023-02-12T10:46:32.124Z,10.77
2023-02-12T10:51:33.968Z,12.10
2023-02-12T10:56:32.692Z,11.38
2023-02-12T11:01:37.859Z,12.82
2023-02-12T11:06:36.713Z,11.40
2023-02-12T11:11:39.021Z,12.43
2023-02-12T11:16:45.660Z,13.32
2023-02-12T11:21:44.554Z,12.13
2023-02-12T11:26:43.521Z,12.75
2023-02-12T11:31:42.774Z,9.90
2023-02-12T11:36:44.496Z,14.75
2023-02-12T11:41:44.420Z,11.90
2023-02-12T11:46:49.785Z,10.57
2023-02-12T11:51:49.909Z,12.52
2023-02-12T11:56:49.123Z,9.55
2023-02-12T12:01:50.225Z,5.57
2023-02-12T12:06:55.990Z,10.57
2023-02-12T12:12:07.238Z,10.80
2023-02-12T12:17:35.676Z,9.63
2023-02-12T12:22:55.854Z,9.07
2023-02-12T12:28:03.185Z,9.80
2023-02-12T12:33:07.143Z,7.05
2023-02-12T12:38:29.678Z,9.70
2023-02-12T12:43:54.933Z,10.80
2023-02-12T12:49:43.954Z,12.00
2023-02-12T12:54:45.679Z,11.48
2023-02-12T13:00:20.706Z,13.50
2023-02-12T13:05:57.195Z,12.55
2023-02-12T13:11:06.397Z,12.00
2023-02-12T13:16:16.970Z,10.68
2023-02-12T13:21:21.519Z,12.13
2023-02-12T13:26:33.324Z,16.60
2023-02-12T13:31:46.033Z,13.55
2023-02-12T13:36:45.412Z,13.93
2023-02-12T13:41:54.326Z,7.97
2023-02-12T13:47:11.325Z,7.47
2023-02-12T13:52:20.783Z,8.35
2023-02-12T13:57:21.226Z,9.35
2023-02-12T14:02:28.367Z,13.77
2023-02-12T14:07:47.057Z,8.43
2023-02-12T14:12:47.138Z,9.57
2023-02-12T14:18:16.852Z,7.57
2023-02-12T14:23:27.910Z,11.00
2023-02-12T14:28:57.760Z,15.93
2023-02-12T14:34:05.775Z,14.70
2023-02-12T14:39:20.047Z,10.63
2023-02-12T14:44:23.312Z,9.38
2023-02-12T14:49:38.735Z,9.73
2023-02-12T14:54:42.860Z,8.07
2023-02-12T14:59:44.691Z,8.65
2023-02-12T15:04:45.578Z,8.10
2023-02-12T15:10:10.794Z,8.23
2023-02-12T15:15:21.868Z,12.38
2023-02-12T15:20:25.447Z,8.20
2023-02-12T15:25:30.671Z,8.90
2023-02-12T15:30:33.893Z,9.75
2023-02-12T15:35:36.197Z,10.50
2023-02-12T15:40:35.465Z,12.68
2023-02-12T15:45:36.858Z,14.18
2023-02-12T15:50:46.417Z,11.45
2023-02-12T15:55:48.010Z,10.75
2023-02-12T16:00:47.908Z,11.63
2023-02-12T16:05:47.835Z,12.50
2023-02-12T16:10:49.728Z,13.05
2023-02-12T16:16:12.168Z,9.80
2023-02-12T16:21:23.418Z,10.27
2023-02-12T16:26:27.044Z,11.35
2023-02-12T16:31:28.096Z,12.32
2023-02-12T16:36:30.631Z,11.98
2023-02-12T16:41:32.458Z,9.88
2023-02-12T16:46:34.513Z,11.10
2023-02-12T16:51:36.120Z,11.20
2023-02-12T16:56:38.959Z,17.30
2023-02-12T17:01:37.815Z,18.73
2023-02-12T17:06:36.553Z,25.02
2023-02-12T17:11:35.431Z,18.27
2023-02-12T17:16:34.352Z,12.00
2023-02-12T17:21:40.443Z,11.70
2023-02-12T17:26:39.297Z,10.75
2023-02-12T17:31:38.764Z,8.25
2023-02-12T17:36:38.226Z,10.57
2023-02-12T17:41:37.196Z,11.32
2023-02-12T17:46:36.439Z,13.23
2023-02-12T17:51:35.745Z,10.98
2023-02-12T17:56:35.044Z,11.70
2023-02-12T18:01:35.447Z,10.15
2023-02-12T18:06:34.605Z,11.38
2023-02-12T18:11:33.494Z,11.23
2023-02-12T18:16:34.918Z,13.98
2023-02-12T18:21:35.251Z,10.65
2023-02-12T18:26:34.116Z,11.50
2023-02-12T18:31:33.706Z,17.35
2023-02-12T18:36:33.230Z,15.38
2023-02-12T18:41:33.168Z,14.57
2023-02-12T18:46:32.160Z,14.40
2023-02-12T18:51:36.458Z,14.65
2023-02-12T18:56:38.026Z,17.52
2023-02-12T19:01:37.586Z,13.27
2023-02-12T19:06:42.988Z,14.88
2023-02-12T19:11:42.231Z,17.20
2023-02-12T19:16:41.996Z,16.73
2023-02-12T19:21:41.170Z,15.40
2023-02-12T19:26:40.362Z,16.80
2023-02-12T19:31:42.084Z,15.05
2023-02-12T19:36:40.915Z,15.40
2023-02-12T19:41:43.072Z,14.18
2023-02-12T19:46:42.473Z,15.52
2023-02-12T19:51:41.791Z,16.73
2023-02-12T19:56:41.418Z,15.77
2023-02-12T20:01:40.682Z,15.43
2023-02-12T20:06:40.845Z,15.43
2023-02-12T20:11:39.914Z,17.92
2023-02-12T20:16:41.856Z,17.63
2023-02-12T20:21:41.155Z,16.55
2023-02-12T20:26:40.078Z,13.10
2023-02-12T20:31:39.054Z,15.85
2023-02-12T20:36:40.068Z,17.27
2023-02-12T20:41:39.496Z,16.95
2023-02-12T20:46:42.639Z,15.55
2023-02-12T20:51:41.921Z,14.60
2023-02-12T20:56:41.175Z,16.38
2023-02-12T21:01:41.686Z,14.93
2023-02-12T21:06:41.735Z,16.38
2023-02-12T21:11:42.292Z,16.55
2023-02-12T21:16:42.399Z,17.58
2023-02-12T21:21:44.734Z,14.75
2023-02-12T21:26:43.485Z,16.58
2023-02-12T21:31:45.687Z,16.00
2023-02-12T21:36:46.404Z,15.52
2023-02-12T21:41:45.175Z,12.77
2023-02-12T21:46:45.167Z,15.60
2023-02-12T21:51:45.403Z,14.38
2023-02-12T21:56:45.644Z,14.05
2023-02-12T22:01:58.626Z,16.73
2023-02-12T22:06:59.651Z,18.13
2023-02-12T22:11:58.391Z,20.58
2023-02-12T22:16:58.558Z,18.88
2023-02-12T22:21:57.306Z,17.42
2023-02-12T22:26:56.127Z,18.50
2023-02-12T22:31:55.264Z,19.70
2023-02-12T22:36:54.448Z,18.67
2023-02-12T22:41:53.499Z,19.92
2023-02-12T22:46:52.301Z,22.75
2023-02-12T22:51:51.335Z,20.63
2023-02-12T22:56:51.647Z,17.63
2023-02-12T23:01:50.961Z,19.98
2023-02-12T23:06:50.553Z,20.52
2023-02-12T23:11:49.619Z,18.27
2023-02-12T23:16:48.696Z,19.77
2023-02-12T23:21:47.475Z,19.50
2023-02-12T23:26:46.308Z,23.27
2023-02-12T23:31:45.060Z,20.70
2023-02-12T23:36:43.864Z,17.35
2023-02-12T23:41:42.772Z,23.42
2023-02-12T23:46:42.203Z,19.77
2023-02-12T23:51:40.954Z,21.48
2023-02-12T23:56:39.789Z,20.92
